createdAt,value
2018-12-23T21:13:09.194Z,8.73
2018-12-23T21:19:13.169Z,10.00
2018-12-23T21:22:03.654Z,8.00
2018-12-23T21:24:41.893Z,9.10
2018-12-23T21:27:22.947Z,9.70
2018-12-23T21:30:01.457Z,8.63
2018-12-23T21:32:53.948Z,9.97
2018-12-23T21:35:29.646Z,8.70
2018-12-23T21:38:19.345Z,7.83
2018-12-23T21:44:24.035Z,15.37
2018-12-23T21:47:20.173Z,17.97
2018-12-23T21:49:58.145Z,16.73
2018-12-23T21:52:45.536Z,16.00
2018-12-23T21:55:28.535Z,17.10
2018-12-23T21:58:13.050Z,17.00
2018-12-23T22:00:51.616Z,19.73
2018-12-23T22:03:42.526Z,19.43
2018-12-23T22:06:31.224Z,17.70
2018-12-23T22:09:20.570Z,18.87
2018-12-23T22:11:53.318Z,18.20
2018-12-23T22:14:23.797Z,18.87
2018-12-23T22:16:52.947Z,18.00
2018-12-23T22:19:23.454Z,18.67
2018-12-23T22:21:53.391Z,18.80
2018-12-23T22:24:22.346Z,18.00
2018-12-23T22:26:51.681Z,17.73
2018-12-23T22:29:20.799Z,22.60
2018-12-23T22:31:49.974Z,20.43
2018-12-23T22:34:19.128Z,19.47
2018-12-23T22:36:49.280Z,19.80
2018-12-23T22:39:18.861Z,22.17
2018-12-23T22:41:48.789Z,24.77
2018-12-23T22:44:18.523Z,21.80
2018-12-23T22:46:48.700Z,25.03
2018-12-23T22:49:18.907Z,26.10
2018-12-23T22:51:49.087Z,26.07
2018-12-23T22:54:18.604Z,25.50
2018-12-23T22:56:48.023Z,26.67
2018-12-23T22:59:20.404Z,27.97
2018-12-23T23:01:50.470Z,26.97
2018-12-23T23:04:19.836Z,26.00
2018-12-23T23:06:49.272Z,20.07
2018-12-23T23:09:18.653Z,18.70
2018-12-23T23:11:49.989Z,17.63
2018-12-23T23:14:19.468Z,16.90
2018-12-23T23:16:49.686Z,16.80
2018-12-23T23:19:19.263Z,16.47
2018-12-23T23:21:48.637Z,22.60
2018-12-23T23:24:18.139Z,24.53
2018-12-23T23:26:47.772Z,22.10
2018-12-23T23:29:17.148Z,19.43
2018-12-23T23:31:46.662Z,17.23
2018-12-23T23:34:16.142Z,17.50
2018-12-23T23:36:48.716Z,16.93
2018-12-23T23:39:18.285Z,20.33
2018-12-23T23:41:47.870Z,19.00
2018-12-23T23:44:16.944Z,20.90
2018-12-23T23:46:46.345Z,26.47
2018-12-23T23:49:15.718Z,26.10
2018-12-23T23:51:45.336Z,25.37
2018-12-23T23:54:14.786Z,21.23
2018-12-23T23:56:44.174Z,18.80
2018-12-23T23:59:13.750Z,18.30
